Time;durP1;ratioP1;P1;durP2;ratioP2;P2;SDS_P1;SDS_P2;PMS_P1;PMS_P2;Temp;Humidity;BMP_temperature;BMP_pressure;BME280_temperature;BME280_humidity;BME280_pressure;Samples;Min_cycle;Max_cycle;Signal;HPM_P1;HPM_P2
2022/06/03 00:02:05;;;;;;;0.10;0.10;;;;;;;21.25;42.48;101535.31;5150349;27;20202;-32
2022/06/03 00:04:48;;;;;;;0.10;0.10;;;;;;;21.25;42.54;101530.59;5137520;27;20488;-35
2022/06/03 00:07:55;;;;;;;0.10;0.10;;;;;;;21.26;42.68;101526.72;5145813;27;20450;-34
2022/06/03 00:10:49;;;;;;;0.10;0.10;;;;;;;21.26;42.68;101523.13;5137167;27;20121;-34
2022/06/03 00:16:30;;;;;;;0.10;0.10;;;;;;;21.26;42.68;101526.72;5161886;27;20214;-34
2022/06/03 00:19:35;;;;;;;0.10;0.10;;;;;;;21.25;42.46;101522.28;5159281;27;20062;-32
2022/06/03 00:22:23;;;;;;;0.10;0.10;;;;;;;21.25;42.58;101530.59;5150528;27;20073;-35
2022/06/03 00:25:01;;;;;;;0.10;0.10;;;;;;;21.25;42.62;101521.47;5148206;27;20523;-34
2022/06/03 00:33:21;;;;;;;0.10;0.10;;;;;;;21.25;42.62;101527.84;5165087;27;20538;-32
2022/06/03 00:39:05;;;;;;;0.10;0.10;;;;;;;21.25;42.65;101524.22;5163127;27;20124;-34
2022/06/03 00:41:40;;;;;;;0.10;0.10;;;;;;;21.24;42.64;101517.88;5137881;27;20456;-32
2022/06/03 00:44:45;;;;;;;0.10;0.10;;;;;;;21.24;42.56;101523.41;5165253;27;20094;-33
2022/06/03 00:47:28;;;;;;;0.10;0.10;;;;;;;21.24;42.72;101517.00;5137739;27;20074;-34
2022/06/03 00:50:33;;;;;;;0.10;0.10;;;;;;;21.24;42.58;101523.41;5165824;27;20114;-35
2022/06/03 00:56:04;;;;;;;0.10;0.10;;;;;;;21.23;42.57;101524.50;5160258;27;20217;-36
2022/06/03 00:58:48;;;;;;;0.10;0.10;;;;;;;21.24;42.50;101522.56;5147374;27;20039;-35
2022/06/03 01:01:35;;;;;;;0.10;0.10;;;;;;;21.22;42.70;101514.53;5138059;27;20140;-36
2022/06/03 01:04:40;;;;;;;0.10;0.10;;;;;;;21.23;42.67;101523.66;5127987;27;20070;-35
2022/06/03 01:07:18;;;;;;;0.10;0.10;;;;;;;21.22;42.73;101513.72;5128133;27;20097;-36
2022/06/03 01:10:10;;;;;;;0.10;0.10;;;;;;;21.22;42.60;101517.31;5136109;27;20074;-35
2022/06/03 01:12:59;;;;;;;0.10;0.10;;;;;;;21.23;42.72;101509.81;5126267;27;20070;-32
2022/06/03 01:15:38;;;;;;;0.10;0.10;;;;;;;21.22;42.74;101511.75;5138142;27;20139;-35
2022/06/03 01:18:18;;;;;;;0.10;0.10;;;;;;;21.22;42.65;101506.22;5139348;27;20080;-37
2022/06/03 01:20:57;;;;;;;0.10;0.10;;;;;;;21.22;42.76;101508.16;5141607;27;20126;-36
2022/06/03 01:23:49;;;;;;;0.10;0.10;;;;;;;21.22;42.63;101497.91;5136589;27;20071;-36
2022/06/03 01:26:54;;;;;;;0.10;0.10;;;;;;;21.23;42.50;101505.09;5132708;27;20086;-36
2022/06/03 01:29:48;;;;;;;0.10;0.10;;;;;;;21.21;42.74;101495.44;5129401;27;20036;-35
2022/06/03 01:32:55;;;;;;;0.10;0.10;;;;;;;21.21;42.80;101500.97;5119185;27;20135;-38
2022/06/03 01:35:45;;;;;;;0.10;0.10;;;;;;;21.21;42.65;101503.75;5114726;27;20057;-38
2022/06/03 01:38:41;;;;;;;0.10;0.10;;;;;;;21.20;42.79;101504.84;5129346;27;20086;-37
2022/06/03 01:44:26;;;;;;;0.10;0.10;;;;;;;21.22;42.76;101506.22;5166079;27;20214;-35
2022/06/03 01:47:21;;;;;;;0.10;0.10;;;;;;;21.20;42.73;101505.69;5146996;27;20047;-34
2022/06/03 01:50:26;;;;;;;0.10;0.10;;;;;;;21.19;42.57;101504.00;5147043;27;20074;-36
2022/06/03 01:53:10;;;;;;;0.10;0.10;;;;;;;21.20;42.97;101497.38;5135920;27;20045;-37
2022/06/03 01:55:59;;;;;;;0.10;0.10;;;;;;;21.19;42.67;101498.47;5162606;27;20545;-37
2022/06/03 01:58:58;;;;;;;0.10;0.10;;;;;;;21.19;42.70;101498.47;5163822;27;20046;-36
2022/06/03 02:02:04;;;;;;;0.10;0.10;;;;;;;21.19;42.83;101489.34;5145565;27;20088;-37
2022/06/03 02:07:43;;;;;;;0.10;0.10;;;;;;;21.19;42.88;101487.38;5166882;27;20210;-31
2022/06/03 02:13:46;;;;;;;0.10;0.10;;;;;;;21.18;42.86;101474.66;5176727;27;20117;-35
2022/06/03 02:19:48;;;;;;;0.17;0.17;;;;;;;21.18;42.67;101474.66;5176407;27;20213;-35
2022/06/03 02:25:39;;;;;;;0.10;0.10;;;;;;;21.18;42.79;101469.13;5172295;27;20140;-34
2022/06/03 02:28:18;;;;;;;0.63;0.20;;;;;;;21.17;42.83;101470.22;5150200;27;20130;-35
2022/06/03 02:31:10;;;;;;;0.10;0.10;;;;;;;21.18;42.75;101462.75;5147783;27;20078;-37
2022/06/03 02:34:09;;;;;;;0.10;0.10;;;;;;;21.18;42.79;101454.44;5143658;27;20046;-36
2022/06/03 02:37:14;;;;;;;0.10;0.10;;;;;;;21.17;42.88;101453.63;5129267;27;20074;-35
2022/06/03 02:39:58;;;;;;;0.10;0.10;;;;;;;21.17;42.86;101458.31;5125248;27;20081;-37
2022/06/03 02:42:52;;;;;;;0.10;0.10;;;;;;;21.17;42.71;101452.78;5153389;27;20089;-38
2022/06/03 02:48:28;;;;;;;0.10;0.10;;;;;;;21.17;42.86;101452.78;5163112;27;20117;-33
2022/06/03 02:51:13;;;;;;;;;;;;;;;21.17;42.61;101445.31;5154652;27;20066;-32
2022/06/03 02:54:11;;;;;;;0.10;0.10;;;;;;;21.15;42.70;101447.50;5138853;27;20013;-36
2022/06/03 02:57:02;;;;;;;0.20;0.20;;;;;;;21.15;42.78;101453.06;5138644;27;20084;-38
2022/06/03 02:59:59;;;;;;;0.10;0.10;;;;;;;21.15;42.72;101450.28;5151385;27;20042;-37
2022/06/03 03:02:53;;;;;;;0.10;0.10;;;;;;;21.15;42.61;101450.28;5154816;27;20066;-37
2022/06/03 03:05:32;;;;;;;0.10;0.10;;;;;;;21.15;42.75;101444.75;5140129;27;20085;-37
2022/06/03 03:08:15;;;;;;;0.10;0.10;;;;;;;21.15;42.96;101444.75;5157844;27;20655;-36
2022/06/03 03:10:54;;;;;;;0.15;0.15;;;;;;;21.14;42.78;101445.84;5130632;27;20097;-34
2022/06/03 03:14:00;;;;;;;0.10;0.10;;;;;;;21.16;42.88;101442.84;5156327;27;20071;-36
2022/06/03 03:16:37;;;;;;;0.10;0.10;;;;;;;21.15;42.89;101444.75;5122191;27;20095;-33
2022/06/03 03:19:43;;;;;;;0.10;0.10;;;;;;;21.15;42.94;101441.16;5151707;27;20113;-33
2022/06/03 03:22:37;;;;;;;0.10;0.10;;;;;;;21.14;42.80;101448.63;5121965;27;20296;-34
2022/06/03 03:25:18;;;;;;;0.10;0.10;;;;;;;21.14;42.97;101454.16;5135560;27;20046;-35
2022/06/03 03:28:08;;;;;;;0.10;0.10;;;;;;;21.14;42.71;101454.16;5136377;27;20138;-34
2022/06/03 03:30:45;;;;;;;0.10;0.10;;;;;;;21.14;42.82;101451.41;5140985;27;20078;-35
2022/06/03 03:33:40;;;;;;;0.10;0.10;;;;;;;21.14;42.95;101458.88;5155674;27;20073;-36
2022/06/03 03:36:47;;;;;;;0.10;0.10;;;;;;;21.15;42.93;101455.00;5124205;27;20039;-38
2022/06/03 03:39:43;;;;;;;0.10;0.10;;;;;;;21.14;42.97;101450.56;5136960;27;20066;-37
2022/06/03 03:42:46;;;;;;;0.10;0.10;;;;;;;21.13;42.97;101448.91;5131004;27;20061;-37
2022/06/03 03:48:34;;;;;;;0.10;0.10;;;;;;;21.13;42.92;101457.22;5153349;27;20230;-32
2022/06/03 03:51:40;;;;;;;0.10;0.10;;;;;;;21.12;42.96;101445.31;5133866;27;20129;-35
2022/06/03 03:54:25;;;;;;;0.10;0.10;;;;;;;21.12;42.80;101439.78;5140234;27;20069;-34
2022/06/03 03:57:31;;;;;;;0.10;0.10;;;;;;;21.12;42.88;101438.97;5160464;27;20074;-32
2022/06/03 04:00:21;;;;;;;0.10;0.10;;;;;;;21.13;42.82;101446.16;5152331;27;20131;-33
2022/06/03 04:03:26;;;;;;;0.10;0.10;;;;;;;21.12;42.86;101438.97;5143639;27;20089;-31
2022/06/03 04:06:07;;;;;;;0.10;0.10;;;;;;;21.12;42.82;101448.09;5129653;27;20838;-31
2022/06/03 04:12:00;;;;;;;0.10;0.10;;;;;;;21.11;42.82;101443.66;5179042;27;20116;-34
2022/06/03 04:15:05;;;;;;;0.10;0.10;;;;;;;21.11;42.95;101437.28;5151863;27;20133;-34
2022/06/03 04:18:08;;;;;;;0.10;0.10;;;;;;;21.11;42.82;101437.28;5136877;27;20389;-35
2022/06/03 04:21:07;;;;;;;0.10;0.10;;;;;;;21.11;43.00;101442.81;5138875;27;20493;-34
2022/06/03 04:24:12;;;;;;;0.20;0.20;;;;;;;21.11;43.00;101440.88;5147840;27;20807;-35
2022/06/03 04:27:17;;;;;;;0.20;0.20;;;;;;;21.10;43.00;101436.44;5137782;27;20496;-33
2022/06/03 04:30:23;;;;;;;0.10;0.10;;;;;;;21.11;42.84;101440.06;5131281;27;20073;-36
2022/06/03 04:33:28;;;;;;;0.10;0.10;;;;;;;21.10;42.89;101433.69;5134797;27;20038;-35
2022/06/03 04:36:34;;;;;;;0.10;0.10;;;;;;;21.10;42.99;101425.38;5149189;27;20129;-31
2022/06/03 04:39:27;;;;;;;0.15;0.15;;;;;;;21.10;43.16;101425.38;5130145;27;20537;-32
2022/06/03 04:42:32;;;;;;;0.10;0.10;;;;;;;21.10;42.89;101419.84;5143893;27;20070;-35
2022/06/03 04:45:26;;;;;;;0.10;0.10;;;;;;;21.10;42.89;101427.31;5137069;27;20073;-31
2022/06/03 04:48:21;;;;;;;0.10;0.10;;;;;;;21.10;42.90;101425.38;5163677;27;20078;-31
2022/06/03 04:51:28;;;;;;;0.10;0.10;;;;;;;21.11;43.12;101431.75;5147212;27;20110;-33
2022/06/03 04:54:32;;;;;;;0.20;0.20;;;;;;;21.10;42.92;101428.16;5137624;27;20046;-32
2022/06/03 04:57:20;;;;;;;0.10;0.10;;;;;;;21.10;42.91;101435.63;5149153;27;20050;-33
2022/06/03 05:00:24;;;;;;;0.10;0.10;;;;;;;21.09;43.01;101439.53;5160756;27;20082;-33
2022/06/03 05:03:24;;;;;;;0.10;0.10;;;;;;;21.09;42.99;101431.22;5138712;27;20125;-32
2022/06/03 05:06:16;;;;;;;0.20;0.20;;;;;;;21.08;42.93;101429.56;5148737;27;20039;-32
2022/06/03 05:09:22;;;;;;;0.10;0.10;;;;;;;21.08;43.07;101424.03;5144404;27;20063;-34
2022/06/03 05:12:10;;;;;;;0.17;0.17;;;;;;;21.09;42.92;101429.25;5130205;27;20108;-32
2022/06/03 05:15:00;;;;;;;0.10;0.10;;;;;;;21.08;42.90;101422.06;5162687;27;20377;-32
2022/06/03 05:17:48;;;;;;;0.10;0.10;;;;;;;21.08;42.85;101411.00;5162533;27;20061;-35
2022/06/03 05:20:40;;;;;;;0.10;0.10;;;;;;;20.84;42.23;101419.06;5163756;27;20042;-37
2022/06/03 05:23:36;;;;;;;0.10;0.10;;;;;;;20.96;42.90;101402.16;5138082;27;20082;-34
2022/06/03 05:26:39;;;;;;;0.10;0.10;;;;;;;21.05;42.54;101404.06;5130117;27;20104;-39
2022/06/03 05:29:22;;;;;;;0.10;0.10;;;;;;;20.99;42.83;101409.91;5128028;27;20070;-37
2022/06/03 05:32:13;;;;;;;0.10;0.10;;;;;;;21.09;42.64;101401.56;5142218;27;20070;-37
2022/06/03 05:34:53;;;;;;;0.10;0.10;;;;;;;21.10;42.57;101408.75;5128976;27;20137;-34
2022/06/03 05:37:58;;;;;;;0.10;0.10;;;;;;;21.12;42.61;101398.25;5144153;27;20126;-35
2022/06/03 05:43:33;;;;;;;0.20;0.20;;;;;;;21.13;42.66;101393.53;5151604;27;20538;-32
2022/06/03 05:48:55;;;;;;;0.10;0.10;;;;;;;21.16;42.71;101401.28;5150130;27;20208;-36
2022/06/03 05:51:31;;;;;;;0.10;0.10;;;;;;;21.16;42.68;101396.56;5149523;27;20130;-34
2022/06/03 05:54:14;;;;;;;0.10;0.10;;;;;;;21.17;42.62;101395.44;5130047;27;20088;-35
2022/06/03 05:57:20;;;;;;;0.10;0.10;;;;;;;21.18;42.49;101397.09;5149027;27;20144;-36
2022/06/03 05:59:57;;;;;;;0.10;0.10;;;;;;;21.11;42.13;101393.78;5122102;27;20485;-36
2022/06/03 06:02:32;;;;;;;0.10;0.10;;;;;;;21.18;42.20;101393.50;5149334;27;20077;-36
2022/06/03 06:05:10;;;;;;;0.10;0.10;;;;;;;21.21;42.23;101384.63;5148702;27;20100;-34
2022/06/03 06:07:44;;;;;;;0.10;0.10;;;;;;;21.22;42.41;101384.34;5152157;27;20141;-38
2022/06/03 06:10:22;;;;;;;0.10;0.10;;;;;;;21.23;42.35;101379.63;5155038;27;20062;-37
2022/06/03 06:13:20;;;;;;;0.10;0.10;;;;;;;21.19;41.50;101379.38;5151301;27;20103;-36
2022/06/03 06:16:02;;;;;;;0.10;0.10;;;;;;;21.25;41.85;101375.47;5131486;27;20129;-36
2022/06/03 06:18:38;;;;;;;0.10;0.10;;;;;;;21.28;41.71;101377.66;5146686;27;20067;-35
2022/06/03 06:21:27;;;;;;;0.10;0.10;;;;;;;21.28;41.81;101374.88;5149303;27;20158;-38
2022/06/03 06:27:00;;;;;;;0.10;0.10;;;;;;;21.30;42.12;101377.38;5150755;27;20325;-32
2022/06/03 06:29:40;;;;;;;0.17;0.17;;;;;;;21.32;42.00;101374.34;5122423;27;20130;-34
2022/06/03 06:32:26;;;;;;;0.10;0.10;;;;;;;21.33;41.85;101379.63;5117965;27;20191;-34
2022/06/03 06:35:31;;;;;;;0.17;0.17;;;;;;;21.34;41.91;101378.50;5131635;27;20611;-32
2022/06/03 06:38:07;;;;;;;0.10;0.10;;;;;;;21.34;41.99;101381.28;5120498;27;20150;-32
2022/06/03 06:41:12;;;;;;;0.10;0.10;;;;;;;21.36;41.82;101379.03;5133949;27;20151;-36
2022/06/03 06:44:02;;;;;;;0.10;0.10;;;;;;;21.37;41.98;101380.69;5101809;27;20061;-36
2022/06/03 06:46:57;;;;;;;0.10;0.10;;;;;;;21.38;41.83;101387.09;5114479;27;20553;-34
2022/06/03 06:49:43;;;;;;;0.10;0.10;;;;;;;21.39;41.93;101386.78;5107686;27;20604;-33
2022/06/03 06:52:40;;;;;;;0.10;0.10;;;;;;;21.40;42.02;101380.13;5127684;27;20047;-34
2022/06/03 06:55:21;;;;;;;0.10;0.10;;;;;;;21.42;41.92;101385.41;5117567;27;20039;-34
2022/06/03 06:57:49;;;;;;;0.10;0.10;;;;;;;21.41;41.96;101384.56;5126680;27;20161;-35
2022/06/03 07:00:24;;;;;;;0.10;0.10;;;;;;;21.43;41.89;101393.44;5133488;27;20050;-32
2022/06/03 07:02:58;;;;;;;0.10;0.10;;;;;;;21.45;41.92;101393.13;5111426;27;20099;-33
2022/06/03 07:05:41;;;;;;;0.10;0.10;;;;;;;21.44;41.60;101392.31;5130492;27;20465;-34
2022/06/03 07:08:30;;;;;;;0.10;0.10;;;;;;;21.45;41.93;101382.88;5112151;27;20468;-36
2022/06/03 07:11:06;;;;;;;0.10;0.10;;;;;;;21.46;41.90;101384.56;5117665;27;20138;-35
2022/06/03 07:13:51;;;;;;;0.10;0.10;;;;;;;21.47;41.95;101386.19;5134629;27;20130;-33
2022/06/03 07:20:00;;;;;;;0.10;0.10;;;;;;;21.48;41.81;101384.25;5121402;27;20059;-33
2022/06/03 07:22:33;;;;;;;0.10;0.10;;;;;;;21.49;41.88;101388.69;5116613;27;20130;-37
2022/06/03 07:25:28;;;;;;;0.10;0.10;;;;;;;21.48;41.87;101390.63;5130611;27;20078;-34
2022/06/03 07:31:01;;;;;;;0.10;0.10;;;;;;;21.49;41.70;101372.88;5164058;27;20213;-34
2022/06/03 07:36:13;;;;;;;0.10;0.10;;;;;;;21.49;41.81;101361.78;5164334;27;20201;-34
2022/06/03 07:38:46;;;;;;;0.10;0.10;;;;;;;21.50;41.63;101363.47;5155335;27;20088;-31
2022/06/03 07:41:35;;;;;;;0.10;0.10;;;;;;;21.50;41.75;101368.16;5156170;27;20078;-35
2022/06/03 07:44:08;;;;;;;0.10;0.10;;;;;;;21.49;41.83;101363.75;5133289;27;20137;-34
2022/06/03 07:46:53;;;;;;;0.10;0.10;;;;;;;21.50;41.77;101369.00;5149915;27;20130;-38
2022/06/03 07:49:21;;;;;;;0.10;0.10;;;;;;;21.49;41.89;101366.50;5148466;27;20070;-37
2022/06/03 07:51:47;;;;;;;;;;;;;;;21.50;41.75;101371.78;5151160;27;20769;-37
2022/06/03 07:54:37;;;;;;;0.20;0.20;;;;;;;21.48;41.67;101367.63;5147146;27;20345;-37
2022/06/03 07:57:07;;;;;;;0.10;0.10;;;;;;;21.47;41.83;101350.19;5147038;27;20364;-36
2022/06/03 07:59:35;;;;;;;0.10;0.10;;;;;;;21.48;41.80;101345.47;5148635;27;20122;-38
2022/06/03 08:02:21;;;;;;;0.10;0.10;;;;;;;21.48;41.67;101351.00;5125620;27;20130;-35
2022/06/03 08:04:59;;;;;;;0.10;0.10;;;;;;;21.47;41.88;101346.59;5114337;27;20465;-35
2022/06/03 08:13:03;;;;;;;0.10;0.10;;;;;;;21.50;41.56;101341.31;5124955;27;20701;-39
2022/06/03 08:15:33;;;;;;;0.20;0.20;;;;;;;21.49;41.47;101333.25;5146099;27;20050;-39
2022/06/03 08:18:00;;;;;;;0.10;0.10;;;;;;;21.48;41.48;101340.75;5146956;27;20126;-41
2022/06/03 08:20:26;;;;;;;0.10;0.10;;;;;;;21.48;41.56;101335.19;5151747;27;20075;-40
2022/06/03 08:22:53;;;;;;;0.10;0.10;;;;;;;21.47;41.52;101328.00;5145718;27;20533;-40
2022/06/03 08:25:24;;;;;;;0.10;0.10;;;;;;;21.48;41.51;101331.59;5125779;27;20157;-40
2022/06/03 08:27:50;;;;;;;0.10;0.10;;;;;;;21.47;41.76;101322.47;5126295;27;20162;-38
2022/06/03 08:30:20;;;;;;;0.10;0.10;;;;;;;21.46;41.77;101320.81;5124622;27;20077;-40
2022/06/03 08:32:50;;;;;;;0.10;0.10;;;;;;;21.46;41.60;101318.03;5119860;27;20538;-40
2022/06/03 08:35:20;;;;;;;0.10;0.10;;;;;;;21.47;41.87;101321.66;5145211;27;20085;-37
2022/06/03 08:37:50;;;;;;;0.10;0.10;;;;;;;21.47;41.69;101327.19;5146667;27;20150;-40
2022/06/03 08:40:44;;;;;;;0.10;0.10;;;;;;;21.46;41.82;101329.13;5150869;27;20049;-42
2022/06/03 08:43:21;;;;;;;0.10;0.10;;;;;;;21.45;41.77;101324.69;5126255;27;20046;-41
2022/06/03 08:45:54;;;;;;;0.10;0.10;;;;;;;21.45;41.70;101330.22;5139125;27;20043;-41
2022/06/03 08:48:26;;;;;;;0.10;0.10;;;;;;;21.44;41.76;101320.25;5128993;27;20043;-41
2022/06/03 08:50:56;;;;;;;0.10;0.10;;;;;;;21.46;41.82;101322.75;5131184;27;20086;-40
2022/06/03 08:53:30;;;;;;;0.10;0.10;;;;;;;21.44;41.61;101320.25;5131429;27;20354;-42
2022/06/03 08:56:03;;;;;;;0.10;0.10;;;;;;;21.44;41.81;101314.72;5130681;27;20134;-41
2022/06/03 08:58:35;;;;;;;0.10;0.10;;;;;;;21.44;41.86;101314.72;5108589;27;20156;-41
2022/06/03 09:01:10;;;;;;;0.10;0.10;;;;;;;21.45;41.78;101310.00;5133954;27;20047;-41
2022/06/03 09:03:47;;;;;;;0.10;0.10;;;;;;;21.44;41.85;101314.72;5132157;27;20142;-41
2022/06/03 09:06:30;;;;;;;0.10;0.10;;;;;;;21.44;41.76;101311.94;5139971;27;20046;-40
2022/06/03 09:09:02;;;;;;;0.10;0.10;;;;;;;21.42;41.83;101310.59;5132216;27;20130;-40
2022/06/03 09:11:42;;;;;;;0.10;0.10;;;;;;;21.43;41.63;101306.72;5118003;27;20075;-39
2022/06/03 09:14:11;;;;;;;0.10;0.10;;;;;;;21.43;41.84;101307.53;5131574;27;20050;-41
2022/06/03 09:16:39;;;;;;;0.10;0.10;;;;;;;21.43;41.97;101315.03;5124172;27;20131;-40
2022/06/03 09:19:12;;;;;;;0.10;0.10;;;;;;;21.42;41.83;101305.88;5121491;27;20470;-39
2022/06/03 09:21:41;;;;;;;0.10;0.10;;;;;;;21.42;41.89;101311.44;5132529;27;20081;-39
2022/06/03 09:24:12;;;;;;;0.10;0.10;;;;;;;21.42;41.84;101307.81;5133053;27;20558;-40
2022/06/03 09:26:40;;;;;;;0.10;0.10;;;;;;;21.42;41.79;101305.88;5135060;27;20074;-41
2022/06/03 09:29:10;;;;;;;0.10;0.10;;;;;;;21.41;41.87;101304.19;5127494;27;20062;-39
2022/06/03 09:31:36;;;;;;;0.10;0.10;;;;;;;21.41;41.56;101303.38;5133364;27;20102;-41
2022/06/03 09:34:03;;;;;;;0.10;0.10;;;;;;;21.42;41.81;101307.81;5134436;27;20050;-41
2022/06/03 09:36:32;;;;;;;0.10;0.10;;;;;;;21.41;41.77;101298.66;5130448;27;20872;-39
2022/06/03 09:39:00;;;;;;;0.10;0.10;;;;;;;21.40;41.89;101294.25;5129446;27;20063;-42
2022/06/03 09:41:31;;;;;;;0.10;0.10;;;;;;;21.40;41.93;101301.72;5133228;27;20153;-41
2022/06/03 09:43:58;;;;;;;0.10;0.10;;;;;;;21.40;41.95;101297.00;5131833;27;20074;-40
2022/06/03 09:46:26;;;;;;;0.00;0.00;;;;;;;21.40;41.93;101290.66;5127883;27;20133;-40
2022/06/03 09:48:52;;;;;;;0.10;0.10;;;;;;;21.39;41.89;101292.59;5115569;27;20062;-40
2022/06/03 09:51:55;;;;;;;0.10;0.10;;;;;;;21.40;41.97;101288.69;5125165;27;20483;-40
2022/06/03 09:54:20;;;;;;;0.10;0.10;;;;;;;21.40;42.01;101280.38;5105505;27;20066;-41
2022/06/03 09:56:50;;;;;;;0.10;0.10;;;;;;;21.38;42.08;101268.78;5126254;27;20577;-40
2022/06/03 09:59:19;;;;;;;0.10;0.10;;;;;;;21.39;41.87;101275.97;5129417;27;20177;-42
2022/06/03 10:01:46;;;;;;;0.10;0.10;;;;;;;21.39;42.00;101269.59;5129933;27;21014;-41
2022/06/03 10:04:12;;;;;;;0.10;0.10;;;;;;;21.40;41.82;101274.03;5128536;27;20046;-41
2022/06/03 10:06:53;;;;;;;0.10;0.10;;;;;;;21.39;42.00;101277.91;5127919;27;20055;-41
2022/06/03 10:17:45;;;;;;;0.10;0.10;;;;;;;21.14;39.74;101270.56;5109249;27;20078;-39
2022/06/03 10:20:11;;;;;;;0.10;0.10;;;;;;;21.27;40.80;101267.16;5111467;27;20071;-40
2022/06/03 10:22:36;;;;;;;0.10;0.10;;;;;;;21.35;40.94;101258.25;5123907;27;20344;-36
2022/06/03 10:25:02;;;;;;;0.10;0.10;;;;;;;21.32;40.87;101250.53;5124507;27;20054;-40
2022/06/03 10:27:28;;;;;;;0.10;0.10;;;;;;;21.38;40.78;101252.16;5125483;27;20090;-41
2022/06/03 10:29:57;;;;;;;0.10;0.10;;;;;;;21.40;40.94;101249.91;5125097;27;20051;-40
2022/06/03 10:32:23;;;;;;;0.10;0.10;;;;;;;21.40;41.10;101246.31;5125262;27;20066;-42
2022/06/03 10:34:49;;;;;;;0.10;0.10;;;;;;;21.40;41.17;101244.38;5130004;27;20051;-40
2022/06/03 10:37:20;;;;;;;0.10;0.10;;;;;;;21.41;41.18;101248.78;5132568;27;20043;-40
2022/06/03 10:39:46;;;;;;;0.10;0.10;;;;;;;21.42;41.35;101261.56;5129913;27;20050;-41
2022/06/03 10:42:14;;;;;;;0.10;0.10;;;;;;;21.43;41.41;101248.53;5136717;27;20071;-40
2022/06/03 10:44:44;;;;;;;0.10;0.10;;;;;;;21.43;41.41;101235.50;5134552;27;20100;-37
2022/06/03 10:47:19;;;;;;;0.15;0.15;;;;;;;21.43;41.38;101243.81;5131966;27;20452;-40
2022/06/03 10:50:04;;;;;;;0.10;0.10;;;;;;;21.45;41.31;101240.72;5127732;27;20063;-39
2022/06/03 11:01:26;;;;;;;0.10;0.10;;;;;;;21.48;41.55;101229.09;5118339;27;20481;-39
2022/06/03 11:03:53;;;;;;;0.10;0.10;;;;;;;21.48;41.44;101231.84;5114982;27;20443;-40
2022/06/03 11:06:25;;;;;;;0.10;0.10;;;;;;;21.50;41.46;101237.91;5129700;27;20565;-42
2022/06/03 11:08:58;;;;;;;0.10;0.10;;;;;;;21.50;41.44;101230.47;5129492;27;20066;-40
2022/06/03 11:11:37;;;;;;;0.10;0.10;;;;;;;21.52;41.39;101232.94;5106045;27;20142;-41
2022/06/03 11:14:25;;;;;;;0.10;0.10;;;;;;;21.51;41.30;101226.56;5129511;27;20081;-40
2022/06/03 11:16:58;;;;;;;0.10;0.10;;;;;;;21.54;41.50;101231.53;5117765;27;20150;-40
2022/06/03 11:19:25;;;;;;;0.10;0.10;;;;;;;21.54;41.26;101228.75;5132281;27;20138;-42
2022/06/03 11:22:16;;;;;;;0.10;0.10;;;;;;;21.55;41.36;101226.81;5132088;27;20414;-42
2022/06/03 11:24:52;;;;;;;0.10;0.10;;;;;;;21.56;41.28;101225.69;5105372;27;20452;-39
2022/06/03 11:27:23;;;;;;;0.10;0.10;;;;;;;21.57;41.46;101230.09;5134724;27;20602;-39
2022/06/03 11:29:50;;;;;;;0.10;0.10;;;;;;;21.59;41.26;101219.56;5132052;27;20079;-41
2022/06/03 11:32:17;;;;;;;0.10;0.10;;;;;;;21.58;41.38;101212.34;5135945;27;20133;-37
2022/06/03 11:34:50;;;;;;;0.10;0.10;;;;;;;21.59;41.24;101208.50;5135180;27;20129;-41
2022/06/03 11:37:21;;;;;;;0.10;0.10;;;;;;;21.58;41.40;101206.81;5135052;27;20133;-41
2022/06/03 11:39:52;;;;;;;0.10;0.10;;;;;;;21.59;41.17;101211.25;5134400;27;20185;-41
2022/06/03 11:42:39;;;;;;;0.10;0.10;;;;;;;21.60;41.37;101212.09;5133804;27;20077;-42
2022/06/03 11:45:11;;;;;;;0.10;0.10;;;;;;;21.60;41.26;101203.78;5121443;27;20896;-41
2022/06/03 11:47:57;;;;;;;0.10;0.10;;;;;;;21.59;41.32;101197.41;5130916;27;20073;-39
2022/06/03 11:50:26;;;;;;;0.10;0.10;;;;;;;21.59;41.33;101191.88;5135057;27;20056;-40
2022/06/03 11:52:52;;;;;;;0.10;0.10;;;;;;;21.60;41.34;101198.22;5132965;27;20134;-41
2022/06/03 11:55:21;;;;;;;0.10;0.10;;;;;;;21.60;41.47;101185.19;5132142;27;21300;-39
2022/06/03 11:57:56;;;;;;;0.10;0.10;;;;;;;21.60;41.31;101195.47;5129676;27;20082;-40
2022/06/03 12:00:22;;;;;;;0.10;0.10;;;;;;;21.45;40.02;101191.69;5133052;27;20130;-35
2022/06/03 12:03:02;;;;;;;0.10;0.10;;;;;;;21.42;40.06;101185.91;5127776;27;20549;-44
2022/06/03 12:05:41;;;;;;;0.10;0.10;;;;;;;21.50;40.34;101185.25;5129325;27;20055;-39
2022/06/03 12:08:13;;;;;;;0.10;0.10;;;;;;;21.57;40.14;101185.78;5125621;27;20141;-40
2022/06/03 12:10:55;;;;;;;0.10;0.10;;;;;;;21.58;40.30;101187.41;5126059;27;20723;-41
2022/06/03 12:13:28;;;;;;;0.10;0.10;;;;;;;21.60;40.37;101178.84;5131182;27;20500;-39
2022/06/03 12:18:42;;;;;;;0.10;0.10;;;;;;;21.61;40.51;101184.06;5153709;27;20210;-38
2022/06/03 12:21:12;;;;;;;0.10;0.10;;;;;;;21.62;40.63;101185.72;5121915;27;20126;-38
2022/06/03 12:26:23;;;;;;;0.10;0.10;;;;;;;21.65;40.61;101181.56;5165196;27;20206;-37
2022/06/03 12:28:51;;;;;;;0.10;0.10;;;;;;;21.65;40.75;101182.38;5140798;27;20130;-38
2022/06/03 12:34:06;;;;;;;0.10;0.10;;;;;;;21.67;40.80;101176.53;5161770;27;20202;-37
2022/06/03 12:36:51;;;;;;;0.10;0.10;;;;;;;21.67;40.76;101173.75;5147349;27;20053;-38
2022/06/03 12:42:10;;;;;;;0.10;0.10;;;;;;;21.69;40.87;101166.00;5161491;27;20201;-37
2022/06/03 12:44:43;;;;;;;0.10;0.10;;;;;;;21.70;40.97;101167.63;5119497;27;20085;-37
2022/06/03 12:52:45;;;;;;;0.10;0.10;;;;;;;21.61;40.39;101166.63;5158341;27;20129;-33
2022/06/03 12:55:17;;;;;;;0.10;0.10;;;;;;;21.67;40.48;101170.97;5157480;27;20042;-33
2022/06/03 12:57:53;;;;;;;0.10;0.10;;;;;;;21.71;40.48;101166.50;5157593;27;20042;-33
2022/06/03 13:00:25;;;;;;;0.10;0.10;;;;;;;21.73;40.57;101169.84;5157044;27;20070;-33
2022/06/03 13:02:57;;;;;;;0.10;0.10;;;;;;;21.74;40.74;101188.94;5161399;27;20073;-33
2022/06/03 13:05:46;;;;;;;0.10;0.10;;;;;;;21.75;40.51;101185.03;5156907;27;20050;-33
2022/06/03 13:11:30;;;;;;;0.10;0.10;;;;;;;21.79;40.62;101171.41;5170681;27;20112;-33
2022/06/03 13:24:38;;;;;;;0.10;0.10;;;;;;;21.81;40.58;101160.88;5172606;27;20200;-33
2022/06/03 13:27:28;;;;;;;0.10;0.10;;;;;;;21.83;40.73;101155.84;5161511;27;20039;-33
2022/06/03 13:35:30;;;;;;;0.10;0.10;;;;;;;21.86;40.76;101165.53;5155644;27;20213;-33
2022/06/03 13:40:34;;;;;;;0.10;0.10;;;;;;;21.87;40.67;101159.69;5159584;27;20230;-33
2022/06/03 13:45:51;;;;;;;0.10;0.10;;;;;;;21.88;40.76;101164.13;5179078;27;20206;-33
2022/06/03 13:48:24;;;;;;;0.10;0.10;;;;;;;21.89;40.80;101157.47;5163288;27;20544;-33
2022/06/03 13:50:50;;;;;;;0.10;0.10;;;;;;;21.90;40.79;101155.53;5145822;27;20118;-33
2022/06/03 13:53:27;;;;;;;0.10;0.10;;;;;;;21.90;40.66;101153.56;5143644;27;20141;-32
2022/06/03 13:56:02;;;;;;;0.10;0.10;;;;;;;21.91;40.68;101155.22;5162034;27;20046;-33
2022/06/03 13:58:32;;;;;;;0.10;0.10;;;;;;;21.90;40.81;101164.66;5164271;27;20081;-33
2022/06/03 14:01:21;;;;;;;0.10;0.10;;;;;;;21.91;40.76;101160.75;5158535;27;20048;-33
2022/06/03 14:03:58;;;;;;;0.10;0.10;;;;;;;21.91;40.76;101158.00;5145871;27;20051;-33
2022/06/03 14:06:31;;;;;;;0.10;0.10;;;;;;;21.92;40.77;101158.81;5161534;27;20497;-33
2022/06/03 14:09:04;;;;;;;0.10;0.10;;;;;;;21.91;40.65;101162.72;5165374;27;20088;-33
2022/06/03 14:11:34;;;;;;;0.10;0.10;;;;;;;21.91;40.64;101163.53;5163301;27;20408;-33
2022/06/03 14:14:08;;;;;;;0.10;0.10;;;;;;;21.90;40.75;101153.56;5164690;27;20189;-33
2022/06/03 14:16:41;;;;;;;0.10;0.10;;;;;;;21.91;40.78;101159.94;5166265;27;20085;-33
2022/06/03 14:21:46;;;;;;;0.10;0.10;;;;;;;21.90;40.84;101161.06;5162852;27;20217;-32
2022/06/03 14:24:31;;;;;;;;;;;;;;;21.91;40.79;101159.94;5160731;27;20174;-34
2022/06/03 14:27:21;;;;;;;0.10;0.10;;;;;;;21.88;40.87;101161.34;5147869;27;20051;-33
2022/06/03 14:29:52;;;;;;;0.10;0.10;;;;;;;21.74;40.90;101157.63;5161309;27;20070;-44
2022/06/03 14:32:21;;;;;;;0.10;0.10;;;;;;;21.73;41.15;101159.56;5163471;27;20098;-42
2022/06/03 14:34:50;;;;;;;0.10;0.10;;;;;;;21.83;41.02;101158.63;5162341;27;20054;-42
2022/06/03 14:37:20;;;;;;;0.10;0.10;;;;;;;21.87;40.97;101150.56;5161965;27;20450;-42